Bejou, Minnesota
Current Conditions -  °F | °C
As of 11:15 PM on Thursday 30 Oct 2014 (Local Time) from K3N8 Reporting Station
Clear Clear  
Wind Chill: -9°   Ceiling: Unl
Heat Index: -4°   Visibility: 10mi
Dew Point: -7°   Wind: 10mph
Humidity: 81%   Direction: 350°N
Pressure: 30.5"   Gusts: NA
Location:  47.44°N, 95.98°W
Report Text: K3N8 310415Z AUTO 35009KT 10SM CLR M04/M06 A3050 RMK AO2 T10361065
Loading
Personal Weather Stations






























Interactive Weather Map
Tropical Storm Tracking
New forecast layout! Learn more

10-Day Weather Forecast

Advertisements
Track Severe Weather on mobile